Flight Track Log - Related Links

Times and Time Zones

All times are in EDT time to prevent confusion due to time zone crossing. See the CES5192 flight status page for this flight to view local times or setup timezone preferences in your user account.


Time Position Orientation Groundspeed Altitude Reporting Facility
EDT Latitude Longitude Course Direction KTS MPH feet Rate Location/Type
Sat 09:07:00 AM 43.3841 89.8419 106° East  Level Estimated
Sat 09:08:00 AM 43.3475 89.9983 108° East  Level Estimated
Sat 09:09:00 AM 43.3107 90.1544 108° East  Level Estimated
Sat 09:10:00 AM 43.2737 90.3104 108° East  Level Estimated
Sat 09:11:00 AM 43.2364 90.4662 108° East  Level Estimated
Sat 09:12:00 AM 43.1990 90.6218 108° East  Level Estimated
Sat 09:13:00 AM 43.1614 90.7772 108° East  Level Estimated
Sat 09:14:00 AM 43.1235 90.9324 108° East  Level Estimated
Sat 09:15:00 AM 43.0854 91.0875 109° East  Level Estimated
Sat 09:16:00 AM 43.0471 91.2423 109° East  Level Estimated
Sat 09:17:00 AM 43.0087 91.3969 109° East  Level Estimated
Sat 09:18:00 AM 42.9700 91.5514 109° East  Level Estimated
Sat 09:19:00 AM 42.9310 91.7056 109° East  Level Estimated
Sat 09:20:00 AM 42.8919 91.8597 109° East  Level Estimated
Sat 09:21:00 AM 42.8526 92.0136 109° East  Level Estimated
Sat 09:22:00 AM 42.8131 92.1672 109° East  Level Estimated
Sat 09:23:00 AM 42.7734 92.3207 109° East  Level Estimated
Sat 09:24:00 AM 42.7334 92.4740 109° East  Level Estimated
Sat 09:25:00 AM 42.6933 92.6270 110° East  Level Estimated
Sat 09:26:00 AM 42.6511 92.7868 110° East  Level Estimated
Sat 09:27:00 AM 42.6087 92.9464 110° East  Level Estimated
Sat 09:28:00 AM 42.5661 93.1057 110° East  Level Estimated
Sat 09:29:00 AM 42.5233 93.2649 110° East  Level Estimated
Sat 09:30:00 AM 42.4802 93.4238 110° East  Level Estimated
Sat 09:31:00 AM 42.4370 93.5825 110° East  Level Estimated
Sat 09:32:00 AM 42.3935 93.7410 110° East  Level Estimated
Sat 09:33:00 AM 42.3498 93.8992 110° East  Level Estimated
Sat 09:34:00 AM 42.3058 94.0573 111° Southeast  Level Estimated
Sat 09:35:00 AM 42.2617 94.2151 111° Southeast  Level Estimated
Sat 09:36:00 AM 42.2173 94.3727 111° Southeast  Level Estimated
Sat 09:37:00 AM 42.1727 94.5301 111° Southeast  Level Estimated
Sat 09:38:00 AM 42.1279 94.6872 111° Southeast  Level Estimated
Sat 09:39:00 AM 42.0829 94.8441 111° Southeast  Level Estimated
Sat 09:40:00 AM 42.0377 95.0009 111° Southeast  Level Estimated
Sat 09:41:00 AM 41.9923 95.1573 111° Southeast  Level Estimated
Sat 09:42:00 AM 41.9467 95.3136 111° Southeast  Level Estimated
Sat 09:43:00 AM 41.9008 95.4696 112° Southeast  Level Estimated
Sat 09:44:00 AM 41.8547 95.6255 112° Southeast  Level Estimated
Sat 09:45:00 AM 41.8084 95.7810 112° Southeast  Level Estimated
Sat 09:46:00 AM 41.7620 95.9364 112° Southeast  Level Estimated
Sat 09:47:00 AM 41.7152 96.0915 112° Southeast  Level Estimated
Sat 09:48:00 AM 41.6684 96.2465 112° Southeast  Level Estimated
Sat 09:49:00 AM 41.6212 96.4011 112° Southeast  Level Estimated
Sat 09:50:00 AM 41.5739 96.5556 112° Southeast  Level Estimated
Sat 09:51:00 AM 41.5264 96.7098 112° Southeast  Level Estimated
Sat 09:52:00 AM 41.4787 96.8638 112° Southeast  Level Estimated
Sat 09:53:00 AM 41.4307 97.0176 113° Southeast  Level Estimated
Sat 09:54:00 AM 41.3826 97.1712 113° Southeast  Level Estimated
Sat 09:55:00 AM 41.3343 97.3245 113° Southeast  Level Estimated
Sat 09:56:00 AM 41.2857 97.4776 113° Southeast  Level Estimated
Sat 09:57:00 AM 41.2369 97.6304 113° Southeast  Level Estimated
Sat 09:58:00 AM 41.1880 97.7831 113° Southeast  Level Estimated
Sat 09:59:00 AM 41.1389 97.9355 113° Southeast  Level Estimated
Sat 10:00:00 AM 41.0895 98.0877 113° Southeast  Level Estimated
Sat 10:01:00 AM 41.0400 98.2396 113° Southeast  Level Estimated
Sat 10:02:00 AM 40.9902 98.3913 113° Southeast  Level Estimated
Sat 10:03:00 AM 40.9403 98.5428 114° Southeast  Level Estimated
Sat 10:04:00 AM 40.8901 98.6941 114° Southeast  Level Estimated
Sat 10:05:00 AM 40.8397 98.8451 114° Southeast  Level Estimated
Sat 10:06:00 AM 40.7892 98.9959 114° Southeast  Level Estimated
Sat 10:07:00 AM 40.7385 99.1465 114° Southeast  Level Estimated
Sat 10:08:00 AM 40.6875 99.2968 114° Southeast  Level Estimated
Sat 10:09:00 AM 40.6364 99.4469 114° Southeast  Level Estimated
Sat 10:10:00 AM 40.5851 99.5968 114° Southeast  Level Estimated
Sat 10:11:00 AM 40.5336 99.7465 114° Southeast  Level Estimated
Sat 10:12:00 AM 40.4819 99.8959 114° Southeast  Level Estimated
Sat 10:13:00 AM 40.4300 100.0451 115° Southeast  Level Estimated
Sat 10:14:00 AM 40.3779 100.1940 115° Southeast  Level Estimated
Sat 10:15:00 AM 40.3256 100.3428 115° Southeast  Level Estimated
Sat 10:16:00 AM 40.2731 100.4913 115° Southeast  Level Estimated
Sat 10:17:00 AM 40.2205 100.6395 115° Southeast  Level Estimated
Sat 10:18:00 AM 40.1676 100.7876 115° Southeast  Level Estimated
Sat 10:19:00 AM 40.1146 100.9354 115° Southeast  Level Estimated
Sat 10:20:00 AM 40.0613 101.0830 115° Southeast  Level Estimated
Sat 10:21:00 AM 40.0079 101.2303 115° Southeast  Level Estimated
Sat 10:22:00 AM 39.9543 101.3774 115° Southeast  Level Estimated
Sat 10:23:00 AM 39.9005 101.5243 115° Southeast  Level Estimated
Sat 10:24:00 AM 39.8466 101.6710 116° Southeast  Level Estimated
Sat 10:25:00 AM 39.7924 101.8174 116° Southeast  Level Estimated
Sat 10:26:00 AM 39.7381 101.9636 116° Southeast  Level Estimated
Sat 10:27:00 AM 39.6835 102.1096 116° Southeast  Level Estimated
Sat 10:28:00 AM 39.6288 102.2553 116° Southeast  Level Estimated
Sat 10:29:00 AM 39.5739 102.4008 116° Southeast  Level Estimated
Sat 10:30:00 AM 39.5189 102.5461 116° Southeast  Level Estimated
Sat 10:31:00 AM 39.4636 102.6911 116° Southeast  Level Estimated
Sat 10:32:00 AM 39.4082 102.8359 116° Southeast  Level Estimated
Sat 10:33:00 AM 39.3526 102.9805 116° Southeast  Level Estimated
Sat 10:34:00 AM 39.2968 103.1248 117° Southeast  Level Estimated
Sat 10:35:00 AM 39.2408 103.2690 117° Southeast  Level Estimated
Sat 10:36:00 AM 39.1847 103.4128 117° Southeast  Level Estimated
Sat 10:37:00 AM 39.1284 103.5565 117° Southeast  Level Estimated
Sat 10:38:00 AM 39.0719 103.6999 117° Southeast  Level Estimated
Sat 10:39:00 AM 39.0152 103.8431 117° Southeast  Level Estimated
Sat 10:40:00 AM 38.9584 103.9861 117° Southeast  Level Estimated
Sat 10:41:00 AM 38.9013 104.1288 117° Southeast  Level Estimated
Sat 10:42:00 AM 38.8442 104.2713 117° Southeast  Level Estimated
Sat 10:43:00 AM 38.7868 104.4136 117° Southeast  Level Estimated
Sat 10:44:00 AM 38.7292 104.5557 117° Southeast  Level Estimated
Sat 10:45:00 AM 38.6715 104.6975 117° Southeast  Level Estimated
Sat 10:46:00 AM 38.6137 104.8391 118° Southeast  Level Estimated
Sat 10:47:00 AM 38.5556 104.9805 118° Southeast  Level Estimated
Sat 10:48:00 AM 38.4974 105.1216 118° Southeast  Level Estimated
Sat 10:49:00 AM 38.4390 105.2625 118° Southeast  Level Estimated
Sat 10:50:00 AM 38.3804 105.4032 118° Southeast  Level Estimated
Sat 10:51:00 AM 38.3217 105.5436 118° Southeast  Level Estimated
Sat 10:52:00 AM 38.2628 105.6839 118° Southeast  Level Estimated
Sat 10:53:00 AM 38.2038 105.8239 118° Southeast  Level Estimated
Sat 10:54:00 AM 38.1445 105.9636 118° Southeast  Level Estimated
Sat 10:55:00 AM 38.0851 106.1032 118° Southeast  Level Estimated
Sat 10:56:00 AM 38.0256 106.2425 118° Southeast  Level Estimated
Sat 10:57:00 AM 37.9659 106.3816 119° Southeast  Level Estimated
Sat 10:58:00 AM 37.9060 106.5204 119° Southeast  Level Estimated
Sat 10:59:00 AM 37.8459 106.6591 119° Southeast  Level Estimated
Sat 11:00:00 AM 37.7857 106.7975 119° Southeast  Level Estimated
Sat 11:01:00 AM 37.7253 106.9357 119° Southeast  Level Estimated
Sat 11:02:00 AM 37.6648 107.0736 119° Southeast  Level Estimated
Sat 11:03:00 AM 37.6041 107.2114 119° Southeast  Level Estimated
Sat 11:04:00 AM 37.5433 107.3489 119° Southeast  Level Estimated
Sat 11:05:00 AM 37.4823 107.4862 119° Southeast  Level Estimated
Sat 11:06:00 AM 37.4211 107.6233 119° Southeast  Level Estimated
Sat 11:07:00 AM 37.3598 107.7601 119° Southeast  Level Estimated
Sat 11:08:00 AM 37.2983 107.8967 119° Southeast  Level Estimated
Sat 11:09:00 AM 37.2366 108.0331 120° Southeast  Level Estimated
Sat 11:10:00 AM 37.1748 108.1693 120° Southeast  Level Estimated
Sat 11:11:00 AM 37.1129 108.3052 120° Southeast  Level Estimated
Sat 11:12:00 AM 37.0508 108.4409 120° Southeast  Level Estimated
Sat 11:13:00 AM 36.9885 108.5764 120° Southeast  Level Estimated
Sat 11:14:00 AM 36.9261 108.7117 120° Southeast  Level Estimated
Sat 11:15:00 AM 36.8635 108.8468 120° Southeast  Level Estimated
Sat 11:16:00 AM 36.8008 108.9816 120° Southeast  Level Estimated
Sat 11:17:00 AM 36.7379 109.1162 120° Southeast  Level Estimated
Sat 11:18:00 AM 36.6749 109.2506 120° Southeast  Level Estimated
Sat 11:19:00 AM 36.6117 109.3848 120° Southeast  Level Estimated
Sat 11:20:00 AM 36.5484 109.5187 120° Southeast  Level Estimated
Sat 11:21:00 AM 36.4849 109.6524 121° Southeast  Level Estimated
Sat 11:22:00 AM 36.4213 109.7859 121° Southeast  Level Estimated
Sat 11:23:00 AM 36.3575 109.9193 121° Southeast  Level Estimated
Sat 11:24:00 AM 36.2936 110.0523 121° Southeast  Level Estimated
Sat 11:25:00 AM 36.2295 110.1852 121° Southeast  Level Estimated
Sat 11:26:00 AM 36.1653 110.3178 121° Southeast  Level Estimated
Sat 11:27:00 AM 36.1010 110.4502 121° Southeast  Level Estimated
Sat 11:28:00 AM 36.0365 110.5825 121° Southeast  Level Estimated
Sat 11:29:00 AM 35.9718 110.7144 121° Southeast  Level Estimated
Sat 11:30:00 AM 35.9070 110.8462 121° Southeast  Level Estimated
Sat 11:31:00 AM 35.8421 110.9778 121° Southeast  Level Estimated
Sat 11:32:00 AM 35.7770 111.1091 121° Southeast  Level Estimated
Sat 11:33:00 AM 35.7118 111.2402 121° Southeast  Level Estimated
Sat 11:34:00 AM 35.6464 111.3712 122° Southeast  Level Estimated
Sat 11:35:00 AM 35.5809 111.5019 122° Southeast  Level Estimated
Sat 11:36:00 AM 35.5152 111.6323 122° Southeast  Level Estimated
Sat 11:37:00 AM 35.4495 111.7626 122° Southeast  Level Estimated
Sat 11:38:00 AM 35.3835 111.8927 122° Southeast  Level Estimated
Sat 11:39:00 AM 35.3175 112.0225 122° Southeast  Level Estimated
Sat 11:40:00 AM 35.2512 112.1522 122° Southeast  Level Estimated
Sat 11:41:00 AM 35.1849 112.2816 122° Southeast  Level Estimated
Sat 11:42:00 AM 35.1184 112.4108 122° Southeast  Level Estimated
Sat 11:43:00 AM 35.0518 112.5398 122° Southeast  Level Estimated
Sat 11:44:00 AM 34.9850 112.6686 122° Southeast  Level Estimated
Sat 11:45:00 AM 34.9182 112.7971 122° Southeast  Level Estimated
Sat 11:46:00 AM 34.8511 112.9255 122° Southeast  Level Estimated
Sat 11:47:00 AM 34.7840 113.0537 123° Southeast  Level Estimated
Sat 11:48:00 AM 34.7167 113.1816 123° Southeast  Level Estimated
Sat 11:49:00 AM 34.6492 113.3094 123° Southeast  Level Estimated
Sat 11:50:00 AM 34.5817 113.4369 123° Southeast  Level Estimated
Sat 11:51:00 AM 34.5140 113.5642 123° Southeast  Level Estimated
Sat 11:52:00 AM 34.4462 113.6914 123° Southeast  Level Estimated
Sat 11:53:00 AM 34.3782 113.8183 123° Southeast  Level Estimated
Sat 11:54:00 AM 34.3101 113.9450 123° Southeast  Level Estimated
Sat 11:55:00 AM 34.2419 114.0715 123° Southeast  Level Estimated
Sat 11:56:00 AM 34.1735 114.1978 123° Southeast  Level Estimated
Sat 11:57:00 AM 34.1050 114.3239 123° Southeast  Level Estimated
Sat 11:58:00 AM 34.0364 114.4498 123° Southeast  Level Estimated
Sat 11:59:00 AM 33.9677 114.5754 123° Southeast  Level Estimated
Sat 12:00:00 PM 33.8988 114.7009 123° Southeast  Level Estimated
Sat 12:01:00 PM 33.8299 114.8262 124° Southeast  Level Estimated
Sat 12:02:00 PM 33.7607 114.9513 124° Southeast  Level Estimated
Sat 12:03:00 PM 33.6915 115.0762 124° Southeast  Level Estimated
Sat 12:04:00 PM 33.6221 115.2008 124° Southeast  Level Estimated
Sat 12:05:00 PM 33.5527 115.3253 124° Southeast  Level Estimated
Sat 12:06:00 PM 33.4830 115.4496 124° Southeast  Level Estimated
Sat 12:07:00 PM 33.4133 115.5736 124° Southeast  Level Estimated
Sat 12:08:00 PM 33.3434 115.6975 124° Southeast  Level Estimated
Sat 12:09:00 PM 33.2734 115.8212 124° Southeast  Level Estimated
Sat 12:10:00 PM 33.2033 115.9447 124° Southeast  Level Estimated
Sat 12:11:00 PM 33.1331 116.0680 124° Southeast  Level Estimated
Sat 12:12:00 PM 33.0628 116.1910 124° Southeast  Level Estimated
Sat 12:13:00 PM 32.9923 116.3139 124° Southeast  Level Estimated
Sat 12:14:00 PM 32.9217 116.4366 124° Southeast  Level Estimated
Sat 12:15:00 PM 32.8510 116.5591 124° Southeast  Level Estimated
Sat 12:16:00 PM 32.7802 116.6814 125° Southeast  Level Estimated
Sat 12:17:00 PM 32.7092 116.8035 125° Southeast  Level Estimated
Sat 12:18:00 PM 32.6381 116.9254 125° Southeast  Level Estimated
Sat 12:19:00 PM 32.5670 117.0471 125° Southeast  Level Estimated
Sat 12:20:00 PM 32.4957 117.1687 125° Southeast  Level Estimated
Sat 12:21:00 PM 32.4242 117.2900 125° Southeast  Level Estimated
Sat 12:22:00 PM 32.3527 117.4111 125° Southeast  Level Estimated
Sat 12:23:00 PM 32.2811 117.5321 125° Southeast  Level Estimated
Sat 12:24:00 PM 32.2093 117.6528 125° Southeast  Level Estimated
Sat 12:25:00 PM 32.1374 117.7734 125° Southeast  Level Estimated
Sat 12:26:00 PM 32.0654 117.8938 125° Southeast  Level Estimated
Sat 12:27:00 PM 31.9933 118.0139 125° Southeast  Level Estimated
Sat 12:28:00 PM 31.9211 118.1339 125° Southeast  Level Estimated
Sat 12:29:00 PM 31.8487 118.2538 125° Southeast  Level Estimated
Sat 12:30:00 PM 31.7763 118.3734 125° Southeast  Level Estimated
Sat 12:31:00 PM 31.7037 118.4928 126° Southeast  Level Estimated
Sat 12:32:00 PM 31.6311 118.6121 126° Southeast  Level Estimated
Sat 12:33:00 PM 31.5583 118.7311 126° Southeast  Level Estimated
Sat 12:34:00 PM 31.4854 118.8500 126° Southeast  Level Estimated
Sat 12:35:00 PM 31.4124 118.9687 126° Southeast  Level Estimated
Sat 12:36:00 PM 31.3393 119.0872 126° Southeast  Level Estimated
Sat 12:37:00 PM 31.2661 119.2055 126° Southeast  Level Estimated
Sat 12:38:00 PM 31.1928 119.3236 126° Southeast  Level Estimated
Sat 12:39:00 PM 31.1193 119.4416 126° Southeast  Level Estimated
Sat 12:40:00 PM 31.0458 119.5593 126° Southeast  Level Estimated
Sat 12:41:00 PM 30.9721 119.6769 126° Southeast  Level Estimated
Sat 12:42:00 PM 30.8984 119.7943 126° Southeast  Level Estimated
Sat 12:43:00 PM 30.8245 119.9116 126° Southeast  Level Estimated
Sat 12:44:00 PM 30.7506 120.0286 126° Southeast  Level Estimated
Sat 12:45:00 PM 30.6765 120.1455 126° Southeast  Level Estimated
Sat 12:46:00 PM 30.6023 120.2622 126° Southeast  Level Estimated
Sat 12:47:00 PM 30.5280 120.3787 126° Southeast  Level Estimated
Sat 12:48:00 PM 30.4537 120.4950 127° Southeast  Level Estimated
Sat 12:49:00 PM 30.3792 120.6112 127° Southeast  Level Estimated
Sat 12:50:00 PM 30.3046 120.7271 127° Southeast  Level Estimated
Sat 12:51:00 PM 30.2299 120.8429 127° Southeast  Level Estimated
Sat 12:52:00 PM 30.1551 120.9586 127° Southeast  Level Estimated
Sat 12:53:00 PM 30.0802 121.0740 127° Southeast  Level Estimated
Sat 12:54:00 PM 30.0052 121.1893 127° Southeast  Level Estimated
Sat 12:55:00 PM 29.9301 121.3044 127° Southeast  Level Estimated
Sat 12:56:00 PM 29.8549 121.4193 127° Southeast  Level Estimated
Sat 12:57:00 PM 29.8249 121.4651 127° Southeast  Level Estimated
Sat 12:58:00 PM 29.8249 121.4651 348° North  Level Estimated
Sat 12:59:00 PM 29.8249 121.4651 348° North  Level Estimated
Sat 01:00:00 PM 29.8249 121.4651 348° North  Level Estimated
Sat 01:01:00 PM 29.8249 121.4651 348° North  Level Estimated
Sat 01:02:00 PM 29.8249 121.4651 348° North  Level Estimated
Sat 01:03:00 PM 29.8249 121.4651 348° North  Level Estimated
Sat 01:04:00 PM 29.8249 121.4651 348° North  Level Estimated
Sat 01:05:00 PM 29.8249 121.4651 348° North  Level Estimated
Sat 01:06:00 PM 29.8249 121.4651 348° North  Level Estimated
Sat 01:07:00 PM 29.8249 121.4651 348° North  Level Estimated
Sat 01:08:00 PM 29.8249 121.4651 348° North  Level Estimated
Sat 01:09:00 PM 29.8249 121.4651 348° North  Level Estimated
Sat 01:10:00 PM 29.8249 121.4651 348° North  Level Estimated
Sat 01:11:00 PM 29.8249 121.4651 348° North  Level Estimated

Login

Don't have an account? Register now (free) for customized features, flight alerts, and more!